Time;durP1;ratioP1;P1;durP2;ratioP2;P2;SDS_P1;SDS_P2;PMS_P1;PMS_P2;Temp;Humidity;BMP_temperature;BMP_pressure;BME280_temperature;BME280_humidity;BME280_pressure;Samples;Min_cycle;Max_cycle;Signal;HPM_P1;HPM_P2
2023/01/06 00:01:08;;;;;;;2.08;1.48;;;9.80;99.90;;;;;;5053136;28;20060;-44
2023/01/06 00:03:34;;;;;;;2.17;1.40;;;9.80;99.90;;;;;;5053198;28;20565;-43
2023/01/06 00:06:01;;;;;;;2.05;1.30;;;9.80;99.90;;;;;;5052957;28;20037;-43
2023/01/06 00:08:27;;;;;;;1.50;1.10;;;9.80;99.90;;;;;;5053160;28;20483;-44
2023/01/06 00:10:53;;;;;;;1.75;1.15;;;9.80;99.90;;;;;;5053351;28;20052;-44
2023/01/06 00:13:19;;;;;;;2.05;1.20;;;9.80;99.90;;;;;;5052967;28;20027;-44
2023/01/06 00:15:45;;;;;;;3.20;1.38;;;9.80;99.90;;;;;;5053190;28;20099;-44
2023/01/06 00:18:10;;;;;;;2.50;1.42;;;9.80;99.90;;;;;;5052794;28;20487;-44
2023/01/06 00:20:36;;;;;;;2.60;1.40;;;9.80;99.90;;;;;;5053128;28;20013;-44
2023/01/06 00:23:02;;;;;;;2.70;1.25;;;9.80;99.90;;;;;;5052698;28;20454;-43
2023/01/06 00:25:28;;;;;;;2.08;1.35;;;9.80;99.90;;;;;;5052647;28;20021;-44
2023/01/06 00:27:54;;;;;;;1.63;1.10;;;9.80;99.90;;;;;;5051264;28;20033;-44
2023/01/06 00:30:20;;;;;;;1.92;1.30;;;9.80;99.90;;;;;;5052689;28;20029;-42
2023/01/06 00:32:46;;;;;;;2.63;1.35;;;9.80;99.90;;;;;;5052612;28;20032;-43
2023/01/06 00:35:11;;;;;;;1.88;1.20;;;9.80;99.90;;;;;;5052641;28;20510;-43
2023/01/06 00:37:37;;;;;;;2.22;1.17;;;9.80;99.90;;;;;;5052531;28;20045;-44
2023/01/06 00:40:03;;;;;;;1.67;1.10;;;9.80;99.90;;;;;;5052788;28;20032;-43
2023/01/06 00:42:28;;;;;;;2.83;1.20;;;9.80;99.90;;;;;;5052575;28;20133;-44
2023/01/06 00:44:54;;;;;;;1.98;1.30;;;9.80;99.90;;;;;;5052569;28;20035;-44
2023/01/06 00:47:20;;;;;;;1.85;1.20;;;9.80;99.90;;;;;;5052210;28;20095;-44
2023/01/06 00:49:45;;;;;;;2.05;1.40;;;9.80;99.90;;;;;;5052185;28;20375;-44
2023/01/06 00:52:11;;;;;;;1.60;1.05;;;9.80;99.90;;;;;;5052650;28;20234;-44
2023/01/06 00:54:37;;;;;;;1.65;1.10;;;9.80;99.90;;;;;;5052183;28;20399;-44
2023/01/06 00:57:05;;;;;;;1.58;0.88;;;9.80;99.90;;;;;;5033961;28;20036;-44
2023/01/06 00:59:31;;;;;;;2.88;1.20;;;9.80;99.90;;;;;;5052055;28;20112;-44
2023/01/06 01:01:57;;;;;;;1.70;1.10;;;9.80;99.90;;;;;;5051822;28;20100;-43
2023/01/06 01:04:24;;;;;;;1.83;1.30;;;9.80;99.90;;;;;;5052310;28;20029;-43
2023/01/06 01:06:51;;;;;;;1.67;1.25;;;9.80;99.90;;;;;;5051755;28;20025;-43
2023/01/06 01:09:23;;;;;;;1.67;1.20;;;9.80;99.90;;;;;;5052203;28;20044;-42
2023/01/06 01:14:45;;;;;;;2.63;1.33;;;9.80;99.90;;;;;;5052163;28;20561;-44
2023/01/06 01:17:14;;;;;;;2.00;1.23;;;9.80;99.90;;;;;;5051752;28;20029;-44
2023/01/06 01:19:40;;;;;;;2.70;1.20;;;9.80;99.90;;;;;;5051976;28;20106;-44
2023/01/06 01:22:06;;;;;;;1.70;1.00;;;9.80;99.90;;;;;;5050296;28;20466;-42
2023/01/06 01:24:32;;;;;;;1.88;1.10;;;9.80;99.90;;;;;;5052031;28;20060;-44
2023/01/06 01:26:58;;;;;;;1.80;1.30;;;9.80;99.90;;;;;;5051073;28;20068;-44
2023/01/06 01:29:24;;;;;;;1.98;1.17;;;9.70;99.90;;;;;;5051521;28;20467;-44
2023/01/06 01:31:49;;;;;;;1.60;1.08;;;9.80;99.90;;;;;;5052011;28;20025;-44
2023/01/06 01:34:16;;;;;;;1.25;1.00;;;9.80;99.90;;;;;;5051504;28;20021;-44
2023/01/06 01:36:44;;;;;;;1.45;1.20;;;9.70;99.90;;;;;;5051990;28;20434;-43
2023/01/06 01:39:11;;;;;;;2.17;1.20;;;9.80;99.90;;;;;;5050922;28;20423;-44
2023/01/06 01:41:37;;;;;;;1.75;1.00;;;9.80;99.90;;;;;;5051814;28;20067;-43
2023/01/06 01:44:41;;;;;;;1.40;0.85;;;9.80;99.90;;;;;;5051707;28;20181;-44
2023/01/06 01:47:08;;;;;;;1.40;1.08;;;9.80;99.90;;;;;;5050819;28;20078;-43
2023/01/06 01:49:37;;;;;;;1.20;1.10;;;9.80;99.90;;;;;;5051479;28;20036;-44
2023/01/06 01:52:03;;;;;;;1.38;1.08;;;9.80;99.90;;;;;;5051589;28;20919;-44
2023/01/06 01:54:31;;;;;;;1.63;1.17;;;9.80;99.90;;;;;;5051510;28;20111;-43
2023/01/06 01:57:25;;;;;;;1.60;1.10;;;9.80;99.90;;;;;;5051532;28;20033;-44
2023/01/06 01:59:51;;;;;;;1.35;1.02;;;9.80;99.90;;;;;;5051256;28;20033;-44
2023/01/06 02:02:17;;;;;;;2.10;1.05;;;9.80;99.90;;;;;;5051200;28;20091;-44
2023/01/06 02:04:50;;;;;;;1.75;1.30;;;9.80;99.90;;;;;;5051610;28;20033;-44
2023/01/06 02:07:16;;;;;;;1.48;1.13;;;9.80;99.90;;;;;;5051422;28;20525;-44
2023/01/06 02:10:12;;;;;;;1.92;1.27;;;9.80;99.90;;;;;;5051132;28;20037;-43
2023/01/06 02:12:38;;;;;;;;;;;9.80;99.90;;;;;;5051815;28;20025;-44
2023/01/06 02:15:14;;;;;;;1.80;1.10;;;9.80;99.90;;;;;;5051509;28;20282;-44
2023/01/06 02:17:59;;;;;;;1.40;1.00;;;9.80;99.90;;;;;;5050704;28;20471;-44
2023/01/06 02:20:50;;;;;;;1.42;1.10;;;9.80;99.90;;;;;;5051108;28;20447;-44
2023/01/06 02:23:32;;;;;;;1.35;0.85;;;9.80;99.90;;;;;;5052896;28;20048;-43
2023/01/06 02:26:25;;;;;;;1.75;1.02;;;9.80;99.90;;;;;;5054710;28;20068;-44
2023/01/06 02:29:23;;;;;;;1.67;1.20;;;9.80;99.90;;;;;;5055239;28;20318;-44
2023/01/06 02:32:04;;;;;;;1.58;1.17;;;9.80;99.90;;;;;;5055052;28;20281;-43
2023/01/06 02:34:32;;;;;;;1.50;1.05;;;9.80;99.90;;;;;;5055468;28;20021;-44
2023/01/06 02:37:16;;;;;;;1.83;1.23;;;9.80;99.90;;;;;;5054467;28;20021;-44
2023/01/06 02:39:48;;;;;;;1.38;1.10;;;9.80;99.90;;;;;;5055417;28;20036;-44
2023/01/06 02:42:38;;;;;;;1.58;1.05;;;9.70;99.90;;;;;;5054900;28;20044;-44
2023/01/06 02:45:28;;;;;;;1.50;1.10;;;9.80;99.90;;;;;;5054962;28;20029;-44
2023/01/06 02:48:05;;;;;;;2.03;0.90;;;9.80;99.90;;;;;;5054217;28;20029;-43
2023/01/06 02:50:39;;;;;;;1.38;1.02;;;9.80;99.90;;;;;;5054581;28;20018;-42
2023/01/06 02:53:16;;;;;;;2.45;1.20;;;9.80;99.90;;;;;;5054643;28;20087;-44
2023/01/06 02:55:45;;;;;;;1.63;0.90;;;9.80;99.90;;;;;;5054475;28;20609;-44
2023/01/06 02:58:29;;;;;;;2.50;1.13;;;9.80;99.90;;;;;;5054349;28;20408;-44
2023/01/06 03:01:18;;;;;;;1.40;0.80;;;9.80;99.90;;;;;;5054382;28;20032;-44
2023/01/06 03:03:47;;;;;;;1.00;0.90;;;9.80;99.90;;;;;;5054633;28;20107;-44
2023/01/06 03:06:20;;;;;;;1.30;0.98;;;9.70;99.90;;;;;;5054197;28;20074;-44
2023/01/06 03:08:47;;;;;;;2.38;1.05;;;9.70;99.90;;;;;;5053968;28;20037;-44
2023/01/06 03:11:13;;;;;;;1.30;0.98;;;9.70;99.90;;;;;;5054087;28;20025;-43
2023/01/06 03:14:01;;;;;;;1.67;1.25;;;9.70;99.90;;;;;;5054208;28;20025;-45
2023/01/06 03:16:27;;;;;;;1.02;0.77;;;9.70;99.90;;;;;;5054488;28;20040;-44
2023/01/06 03:18:54;;;;;;;1.77;0.98;;;9.70;99.90;;;;;;5053948;28;20029;-44
2023/01/06 03:21:29;;;;;;;1.30;0.93;;;9.70;99.90;;;;;;5052640;28;20071;-43
2023/01/06 03:23:54;;;;;;;2.13;1.10;;;9.70;99.90;;;;;;5053729;28;20497;-45
2023/01/06 03:26:20;;;;;;;2.08;1.00;;;9.70;99.90;;;;;;5053739;28;20037;-42
2023/01/06 03:28:46;;;;;;;1.52;1.02;;;9.70;99.90;;;;;;5054354;28;20044;-42
2023/01/06 03:31:54;;;;;;;1.45;1.00;;;9.70;99.90;;;;;;5053738;28;20029;-44
2023/01/06 03:34:32;;;;;;;1.10;0.88;;;9.70;99.90;;;;;;5053195;28;20029;-44
2023/01/06 03:37:04;;;;;;;3.17;1.27;;;9.70;99.90;;;;;;5053725;28;20036;-44
2023/01/06 03:39:59;;;;;;;1.75;0.90;;;9.70;99.90;;;;;;5053592;28;20028;-43
2023/01/06 03:45:43;;;;;;;1.25;1.00;;;9.70;99.90;;;;;;5053483;28;20136;-44
2023/01/06 03:48:24;;;;;;;1.55;1.02;;;9.70;99.90;;;;;;5053303;28;20087;-43
2023/01/06 03:50:54;;;;;;;1.33;0.98;;;9.70;99.90;;;;;;5053324;28;20048;-43
2023/01/06 03:53:29;;;;;;;1.13;0.80;;;9.70;99.90;;;;;;5053536;28;20016;-44
2023/01/06 03:56:24;;;;;;;1.58;0.80;;;9.70;99.90;;;;;;5053471;28;20111;-45
2023/01/06 03:58:55;;;;;;;1.05;0.90;;;9.70;99.90;;;;;;5049571;28;20037;-44
2023/01/06 04:01:25;;;;;;;1.30;0.80;;;9.70;99.90;;;;;;5053700;28;20025;-44
2023/01/06 04:03:52;;;;;;;1.27;0.90;;;9.70;99.90;;;;;;5053683;28;20021;-44
2023/01/06 04:06:18;;;;;;;1.08;0.80;;;9.70;99.90;;;;;;5053366;28;20060;-44
2023/01/06 04:08:44;;;;;;;1.45;0.68;;;9.70;99.90;;;;;;5053644;28;20060;-44
2023/01/06 04:12:37;;;;;;;1.20;0.80;;;9.70;99.90;;;;;;5052855;28;20025;-44
2023/01/06 04:13:55;;;;;;;1.13;0.82;;;9.70;99.90;;;;;;5053123;28;20475;-44
2023/01/06 04:16:21;;;;;;;1.52;1.20;;;9.70;99.90;;;;;;5053034;28;20044;-44
2023/01/06 04:18:47;;;;;;;1.23;0.90;;;9.70;99.90;;;;;;5053839;28;20036;-44
2023/01/06 04:21:12;;;;;;;2.22;1.00;;;9.70;99.90;;;;;;5053028;28;20052;-43
2023/01/06 04:23:38;;;;;;;1.73;0.90;;;9.70;99.90;;;;;;5052577;28;20035;-42
2023/01/06 04:26:04;;;;;;;1.42;1.10;;;9.70;99.90;;;;;;5052411;28;20032;-44
2023/01/06 04:28:29;;;;;;;1.10;0.68;;;9.70;99.90;;;;;;5053128;28;20048;-44
2023/01/06 04:30:59;;;;;;;1.42;0.90;;;9.70;99.90;;;;;;5052566;28;20013;-44
2023/01/06 04:33:25;;;;;;;1.38;0.82;;;9.70;99.90;;;;;;5052497;28;20437;-43
2023/01/06 04:35:51;;;;;;;1.30;0.80;;;9.70;99.90;;;;;;5052154;28;20533;-44
2023/01/06 04:38:17;;;;;;;1.15;0.90;;;9.70;99.90;;;;;;5052253;28;20033;-44
2023/01/06 04:40:43;;;;;;;1.65;0.95;;;9.70;99.90;;;;;;5052469;28;20052;-44
2023/01/06 04:43:14;;;;;;;0.98;0.70;;;9.70;99.90;;;;;;5053023;28;20033;-44
2023/01/06 04:45:41;;;;;;;1.25;0.82;;;9.70;99.90;;;;;;5051497;28;20052;-44
2023/01/06 04:48:11;;;;;;;1.25;0.70;;;9.70;99.90;;;;;;5052095;28;20017;-42
2023/01/06 04:50:37;;;;;;;1.30;0.98;;;9.70;99.90;;;;;;5052035;28;20037;-44
2023/01/06 04:53:04;;;;;;;1.52;0.85;;;9.70;99.90;;;;;;5052155;28;20095;-44
2023/01/06 04:55:30;;;;;;;1.02;0.85;;;9.70;99.90;;;;;;5052194;28;20032;-44
2023/01/06 04:57:56;;;;;;;0.82;0.77;;;9.70;99.90;;;;;;5052886;28;20052;-44
2023/01/06 05:00:21;;;;;;;1.52;0.73;;;9.70;99.90;;;;;;5052011;28;20078;-44
2023/01/06 05:02:48;;;;;;;1.10;0.80;;;9.70;99.90;;;;;;5051962;28;20028;-43
2023/01/06 05:05:14;;;;;;;1.33;1.15;;;9.70;99.90;;;;;;5051739;28;20029;-44
2023/01/06 05:07:40;;;;;;;1.27;0.77;;;9.70;99.90;;;;;;5052583;28;20033;-44
2023/01/06 05:10:07;;;;;;;1.05;0.90;;;9.60;99.90;;;;;;5051979;28;20100;-44
2023/01/06 05:12:34;;;;;;;1.67;0.77;;;9.70;99.90;;;;;;5052194;28;20539;-43
2023/01/06 05:14:59;;;;;;;1.63;1.00;;;9.70;99.90;;;;;;5051786;28;20025;-45
2023/01/06 05:17:25;;;;;;;2.83;1.00;;;9.70;99.90;;;;;;5051472;28;20036;-44
2023/01/06 05:19:52;;;;;;;0.90;0.70;;;9.70;99.90;;;;;;5051540;28;20390;-44
2023/01/06 05:22:17;;;;;;;1.90;1.00;;;9.70;99.90;;;;;;5052480;28;20029;-44
2023/01/06 05:24:43;;;;;;;1.50;0.90;;;9.70;99.90;;;;;;5051881;28;20024;-44
2023/01/06 05:27:09;;;;;;;1.67;0.98;;;9.70;99.90;;;;;;5051186;28;20100;-43
2023/01/06 05:29:35;;;;;;;1.00;0.70;;;9.60;99.90;;;;;;5051870;28;20013;-42
2023/01/06 05:32:02;;;;;;;1.70;0.80;;;9.70;99.90;;;;;;5052280;28;20017;-43
2023/01/06 05:34:27;;;;;;;2.10;1.20;;;9.70;99.90;;;;;;5051393;28;20399;-44
2023/01/06 05:36:53;;;;;;;1.90;0.95;;;9.70;99.90;;;;;;5051324;28;20087;-44
2023/01/06 05:39:19;;;;;;;1.15;0.90;;;9.70;99.90;;;;;;5051390;28;20029;-42
2023/01/06 05:41:45;;;;;;;1.60;0.93;;;9.60;99.90;;;;;;5051923;28;20406;-43
2023/01/06 05:44:10;;;;;;;1.73;0.90;;;9.70;99.90;;;;;;5051551;28;20040;-44
2023/01/06 05:46:36;;;;;;;1.00;0.70;;;9.70;99.90;;;;;;5051234;28;20033;-43
2023/01/06 05:49:01;;;;;;;1.00;0.80;;;9.70;99.90;;;;;;5051644;28;20108;-43
2023/01/06 05:51:28;;;;;;;1.27;0.90;;;9.70;99.90;;;;;;5051248;28;20028;-44
2023/01/06 05:53:53;;;;;;;1.10;0.80;;;9.70;99.90;;;;;;5051575;28;20021;-44
2023/01/06 05:56:21;;;;;;;2.55;0.80;;;9.70;99.90;;;;;;5051469;28;20040;-44
2023/01/06 05:58:51;;;;;;;1.90;0.90;;;9.70;99.90;;;;;;5051571;28;20017;-44
2023/01/06 06:01:28;;;;;;;1.35;0.90;;;9.70;99.90;;;;;;5051483;28;20120;-44
2023/01/06 06:03:54;;;;;;;1.00;0.85;;;9.70;99.90;;;;;;5051478;28;20054;-44
2023/01/06 06:06:22;;;;;;;1.77;0.95;;;9.70;99.90;;;;;;5051128;28;20044;-44
2023/01/06 06:08:48;;;;;;;1.40;0.90;;;9.70;99.90;;;;;;5051913;28;20022;-44
2023/01/06 06:11:16;;;;;;;1.10;0.90;;;9.70;99.90;;;;;;5051087;28;20018;-43
2023/01/06 06:13:53;;;;;;;1.75;0.80;;;9.70;99.90;;;;;;5051036;28;20017;-44
2023/01/06 06:16:21;;;;;;;1.10;0.90;;;9.70;99.90;;;;;;5051070;28;20144;-44
2023/01/06 06:18:50;;;;;;;1.83;0.93;;;9.70;99.90;;;;;;5050904;28;20087;-44
2023/01/06 06:21:19;;;;;;;1.25;0.80;;;9.70;99.90;;;;;;5050938;28;20033;-44
2023/01/06 06:23:44;;;;;;;1.75;1.00;;;9.70;99.90;;;;;;5050886;28;20044;-44
2023/01/06 06:26:11;;;;;;;1.33;0.77;;;9.70;99.90;;;;;;5050822;28;20029;-44
2023/01/06 06:28:37;;;;;;;2.03;0.70;;;9.70;99.90;;;;;;5051645;28;20029;-44
2023/01/06 06:31:17;;;;;;;1.23;0.80;;;9.70;99.90;;;;;;5051117;28;20108;-44
2023/01/06 06:33:42;;;;;;;1.73;0.82;;;9.70;99.90;;;;;;5050888;28;20022;-44
2023/01/06 06:36:14;;;;;;;1.13;0.80;;;9.70;99.90;;;;;;5051034;28;20145;-42
2023/01/06 06:38:45;;;;;;;1.25;0.80;;;9.70;99.90;;;;;;5051109;28;20407;-44
2023/01/06 06:41:11;;;;;;;1.05;0.90;;;9.70;99.90;;;;;;5051285;28;20025;-43
2023/01/06 06:43:37;;;;;;;1.33;0.95;;;9.70;99.90;;;;;;5050750;28;20066;-44
2023/01/06 06:46:02;;;;;;;1.10;0.75;;;9.70;99.90;;;;;;5050408;28;20040;-44
2023/01/06 06:48:28;;;;;;;1.13;0.90;;;9.70;99.90;;;;;;5050560;28;20078;-44
2023/01/06 06:51:01;;;;;;;0.90;0.77;;;9.70;99.90;;;;;;5051092;28;20096;-44
2023/01/06 06:53:27;;;;;;;1.33;0.80;;;9.70;99.90;;;;;;5050607;28;20036;-44
2023/01/06 06:55:54;;;;;;;0.98;0.70;;;9.70;99.90;;;;;;5050715;28;20309;-44
2023/01/06 06:58:19;;;;;;;0.93;0.70;;;9.70;99.90;;;;;;5051389;28;20017;-44
2023/01/06 07:00:45;;;;;;;1.30;0.90;;;9.70;99.90;;;;;;5050688;28;20161;-44
2023/01/06 07:03:11;;;;;;;1.90;0.93;;;9.70;99.90;;;;;;5050634;28;20067;-44
2023/01/06 07:05:37;;;;;;;1.60;0.73;;;9.70;99.90;;;;;;5050670;28;20060;-44
2023/01/06 07:08:03;;;;;;;1.67;1.00;;;9.70;99.90;;;;;;5050327;28;20546;-43
2023/01/06 07:10:28;;;;;;;1.13;0.82;;;9.70;99.90;;;;;;5055207;28;20506;-43
2023/01/06 07:12:54;;;;;;;3.13;0.85;;;9.70;99.90;;;;;;5054670;28;20033;-44
2023/01/06 07:15:20;;;;;;;0.90;0.75;;;9.70;99.90;;;;;;5054000;28;20029;-44
2023/01/06 07:17:45;;;;;;;0.80;0.70;;;9.60;99.90;;;;;;5053682;28;20044;-44
2023/01/06 07:20:11;;;;;;;1.52;0.95;;;9.60;99.90;;;;;;5053942;28;20021;-44
2023/01/06 07:22:38;;;;;;;3.35;0.98;;;9.70;99.90;;;;;;5054727;28;20063;-44
2023/01/06 07:25:08;;;;;;;1.60;1.00;;;9.70;99.90;;;;;;5054208;28;20056;-44
2023/01/06 07:27:34;;;;;;;1.13;1.00;;;9.70;99.90;;;;;;5054506;28;20375;-44
2023/01/06 07:30:00;;;;;;;1.80;1.10;;;9.70;99.90;;;;;;5053811;28;20028;-44
2023/01/06 07:32:25;;;;;;;0.98;0.77;;;9.70;99.90;;;;;;5054277;28;20486;-40
2023/01/06 07:34:51;;;;;;;1.05;0.75;;;9.70;99.90;;;;;;5053671;28;20017;-44
2023/01/06 07:37:17;;;;;;;1.27;0.95;;;9.70;99.90;;;;;;5053418;28;20116;-42
2023/01/06 07:39:42;;;;;;;1.02;0.90;;;9.70;99.90;;;;;;5053555;28;20068;-44
2023/01/06 07:42:09;;;;;;;1.17;0.90;;;9.70;99.90;;;;;;5053498;28;20029;-44
2023/01/06 07:44:35;;;;;;;1.23;0.98;;;9.70;99.90;;;;;;5053766;28;20573;-43
2023/01/06 07:47:00;;;;;;;1.60;0.85;;;9.70;99.90;;;;;;5053401;28;20041;-44
2023/01/06 07:49:26;;;;;;;1.25;0.85;;;9.70;99.90;;;;;;5054169;28;20100;-44
2023/01/06 07:51:52;;;;;;;1.77;0.93;;;9.70;99.90;;;;;;5053712;28;20080;-44
2023/01/06 07:54:17;;;;;;;1.02;0.82;;;9.70;99.90;;;;;;5053903;28;20029;-43
2023/01/06 07:56:43;;;;;;;1.02;0.80;;;9.60;99.90;;;;;;5052282;28;20028;-44
2023/01/06 07:59:09;;;;;;;1.27;0.85;;;9.70;99.90;;;;;;5053369;28;20507;-44
2023/01/06 08:01:35;;;;;;;1.20;0.88;;;9.70;99.90;;;;;;5053961;28;20028;-44
2023/01/06 08:04:01;;;;;;;0.80;0.70;;;9.70;99.90;;;;;;5053209;28;20490;-44
2023/01/06 08:06:27;;;;;;;1.13;0.98;;;9.70;99.90;;;;;;5052753;28;20083;-44
2023/01/06 08:08:53;;;;;;;1.27;0.90;;;9.70;99.90;;;;;;5053395;28;20029;-44
2023/01/06 08:11:18;;;;;;;1.25;0.70;;;9.70;99.90;;;;;;5052980;28;20023;-44
2023/01/06 08:13:44;;;;;;;1.83;0.93;;;9.70;99.90;;;;;;5053287;28;20029;-44
2023/01/06 08:16:10;;;;;;;0.93;0.80;;;9.70;99.90;;;;;;5052774;28;20079;-43
2023/01/06 08:18:37;;;;;;;0.88;0.73;;;9.70;99.90;;;;;;5052787;28;20021;-44
2023/01/06 08:21:06;;;;;;;1.23;0.80;;;9.70;99.90;;;;;;5052535;28;20112;-44
2023/01/06 08:23:32;;;;;;;1.40;0.82;;;9.70;99.90;;;;;;5053007;28;20479;-44
2023/01/06 08:26:06;;;;;;;0.93;0.70;;;9.70;99.90;;;;;;5052432;28;20108;-45
2023/01/06 08:28:32;;;;;;;1.27;0.75;;;9.70;99.90;;;;;;5053265;28;20082;-44
2023/01/06 08:30:58;;;;;;;0.80;0.70;;;9.70;99.90;;;;;;5052888;28;20033;-44
2023/01/06 08:33:24;;;;;;;1.10;0.80;;;9.70;99.90;;;;;;5052905;28;20029;-44
2023/01/06 08:36:01;;;;;;;1.67;1.00;;;9.70;99.90;;;;;;5052612;28;20029;-43
2023/01/06 08:38:28;;;;;;;1.00;0.70;;;9.70;99.90;;;;;;5052813;28;20029;-44
2023/01/06 08:40:54;;;;;;;0.98;0.80;;;9.70;99.90;;;;;;5053004;28;20040;-44
2023/01/06 08:43:20;;;;;;;0.80;0.70;;;9.70;99.90;;;;;;5053395;28;20096;-45
2023/01/06 08:45:46;;;;;;;0.77;0.77;;;9.70;99.90;;;;;;5052154;28;20032;-44
2023/01/06 08:48:12;;;;;;;0.80;0.70;;;9.70;99.90;;;;;;5052043;28;20060;-44
2023/01/06 08:50:39;;;;;;;0.93;0.63;;;9.70;99.90;;;;;;5052694;28;20021;-44
2023/01/06 08:53:04;;;;;;;0.80;0.68;;;9.70;99.90;;;;;;5052536;28;20025;-44
2023/01/06 08:55:30;;;;;;;0.82;0.70;;;9.70;99.90;;;;;;5052525;28;20036;-44
2023/01/06 08:57:55;;;;;;;1.02;0.80;;;9.70;99.90;;;;;;5052547;28;20028;-44
2023/01/06 09:00:21;;;;;;;1.17;0.80;;;9.70;99.90;;;;;;5052067;28;20075;-43
2023/01/06 09:02:47;;;;;;;1.33;0.90;;;9.70;99.90;;;;;;5051906;28;20429;-44
2023/01/06 09:05:12;;;;;;;0.77;0.70;;;9.70;99.90;;;;;;5051986;28;20029;-45
2023/01/06 09:07:38;;;;;;;0.75;0.70;;;9.70;99.90;;;;;;5051929;28;20383;-43
2023/01/06 09:10:04;;;;;;;0.80;0.70;;;9.60;99.90;;;;;;5052404;28;20052;-44
2023/01/06 09:12:30;;;;;;;0.95;0.63;;;9.70;99.90;;;;;;5051901;28;20044;-44
2023/01/06 09:14:55;;;;;;;0.80;0.70;;;9.70;99.90;;;;;;5051787;28;20021;-44
2023/01/06 09:17:21;;;;;;;0.93;0.70;;;9.70;99.90;;;;;;5051275;28;20530;-44
2023/01/06 09:19:46;;;;;;;0.82;0.60;;;9.70;99.90;;;;;;5052185;28;20029;-44
2023/01/06 09:22:12;;;;;;;1.65;0.52;;;9.70;99.90;;;;;;5052138;28;20044;-43
2023/01/06 09:24:37;;;;;;;1.85;0.80;;;9.70;99.90;;;;;;5051838;28;20398;-43
2023/01/06 09:27:03;;;;;;;1.52;0.50;;;9.70;99.90;;;;;;5051216;28;20025;-44
2023/01/06 09:29:29;;;;;;;1.10;0.70;;;9.60;99.90;;;;;;5052658;28;20028;-44
2023/01/06 09:31:54;;;;;;;0.88;0.70;;;9.70;99.90;;;;;;5051075;28;20017;-44
2023/01/06 09:34:20;;;;;;;0.93;0.70;;;9.70;99.90;;;;;;5052468;28;20032;-44
2023/01/06 09:36:46;;;;;;;0.75;0.75;;;9.70;99.90;;;;;;5051472;28;20065;-45
2023/01/06 09:39:11;;;;;;;1.02;0.80;;;9.70;99.90;;;;;;5052568;28;20028;-44
2023/01/06 09:41:58;;;;;;;1.10;0.90;;;9.70;99.90;;;;;;5052305;28;20456;-43
2023/01/06 09:44:29;;;;;;;1.30;0.70;;;9.70;99.90;;;;;;5052086;28;20528;-44
2023/01/06 09:46:57;;;;;;;1.50;1.10;;;9.70;99.90;;;;;;5051272;28;20029;-43
2023/01/06 09:49:38;;;;;;;3.28;1.10;;;9.70;99.90;;;;;;5051538;28;20033;-44
2023/01/06 09:52:28;;;;;;;1.40;1.00;;;9.70;99.90;;;;;;5051689;28;20021;-43
2023/01/06 09:55:13;;;;;;;2.13;1.38;;;9.70;99.90;;;;;;5051419;28;20037;-42
2023/01/06 09:57:51;;;;;;;2.13;1.40;;;9.70;99.90;;;;;;5049462;28;20200;-44
2023/01/06 10:00:37;;;;;;;1.83;1.38;;;9.70;99.90;;;;;;5051195;28;20421;-44
2023/01/06 10:03:04;;;;;;;1.95;1.00;;;9.70;99.90;;;;;;5051217;28;20029;-42
2023/01/06 10:05:35;;;;;;;2.33;1.27;;;9.70;99.90;;;;;;5051129;28;20036;-43
2023/01/06 10:08:09;;;;;;;2.00;1.10;;;9.70;99.90;;;;;;5050848;28;20096;-43
2023/01/06 10:10:35;;;;;;;3.10;1.20;;;9.70;99.90;;;;;;5051102;28;20028;-42
2023/01/06 10:13:31;;;;;;;2.08;1.20;;;9.70;99.90;;;;;;5050960;28;20025;-43
2023/01/06 10:16:15;;;;;;;1.50;0.98;;;9.70;99.90;;;;;;5050871;28;20108;-45
2023/01/06 10:19:03;;;;;;;4.30;0.70;;;9.70;99.90;;;;;;5051506;28;20033;-43
2023/01/06 10:21:57;;;;;;;1.75;1.13;;;9.70;99.90;;;;;;5050837;28;20032;-44
2023/01/06 10:24:45;;;;;;;2.63;0.80;;;9.70;99.90;;;;;;5047732;28;20462;-43
2023/01/06 10:27:19;;;;;;;2.90;1.00;;;9.70;99.90;;;;;;5051111;28;20040;-43
2023/01/06 10:29:47;;;;;;;1.50;1.00;;;9.70;99.90;;;;;;5052253;28;20027;-43
2023/01/06 10:32:15;;;;;;;3.97;0.70;;;9.70;99.90;;;;;;5051338;28;20434;-43
2023/01/06 10:34:47;;;;;;;1.50;0.80;;;9.70;99.90;;;;;;5053333;28;20029;-44
2023/01/06 10:37:15;;;;;;;1.17;0.73;;;9.80;99.90;;;;;;5049495;28;20021;-43
2023/01/06 10:39:44;;;;;;;1.00;0.73;;;9.80;99.90;;;;;;5051380;28;20107;-42
2023/01/06 10:42:58;;;;;;;2.65;0.80;;;9.80;99.90;;;;;;5051090;28;20036;-41
2023/01/06 10:45:50;;;;;;;1.00;0.80;;;9.80;99.90;;;;;;5056374;28;20031;-43
2023/01/06 10:48:23;;;;;;;0.80;0.70;;;9.80;99.90;;;;;;5054444;28;20398;-43
2023/01/06 10:50:48;;;;;;;1.65;0.90;;;9.80;99.90;;;;;;5054448;28;20025;-41
2023/01/06 10:53:15;;;;;;;1.45;0.88;;;9.80;99.90;;;;;;5055844;28;20024;-43
2023/01/06 10:55:59;;;;;;;0.95;0.90;;;9.80;99.90;;;;;;5055497;28;20074;-43
2023/01/06 10:58:40;;;;;;;1.50;0.60;;;9.80;99.90;;;;;;5054055;28;20167;-43
2023/01/06 11:01:14;;;;;;;1.45;0.80;;;9.90;99.90;;;;;;5055676;28;20031;-43
2023/01/06 11:03:43;;;;;;;1.08;0.70;;;9.90;99.90;;;;;;5054827;28;20013;-42
2023/01/06 11:06:14;;;;;;;0.90;0.77;;;9.80;99.90;;;;;;5055228;28;20029;-43
2023/01/06 11:08:40;;;;;;;0.70;0.50;;;9.90;99.90;;;;;;5054777;28;20017;-43
2023/01/06 11:11:12;;;;;;;1.05;0.50;;;9.90;99.90;;;;;;5054979;28;20021;-42
2023/01/06 11:13:40;;;;;;;0.70;0.60;;;9.90;99.90;;;;;;5055331;28;20356;-42
2023/01/06 11:16:18;;;;;;;1.55;0.70;;;9.90;99.90;;;;;;5053810;28;20037;-43
2023/01/06 11:18:51;;;;;;;1.02;0.80;;;9.90;99.90;;;;;;5054468;28;20013;-44
2023/01/06 11:21:17;;;;;;;1.00;0.60;;;9.90;99.90;;;;;;5055916;28;20025;-44
2023/01/06 11:23:48;;;;;;;1.35;0.60;;;9.90;99.90;;;;;;5054913;28;20545;-44
2023/01/06 11:26:23;;;;;;;0.63;0.55;;;9.90;99.90;;;;;;5053538;28;20049;-44
2023/01/06 11:28:53;;;;;;;0.98;0.68;;;9.90;99.90;;;;;;5054913;28;20056;-43
2023/01/06 11:31:25;;;;;;;1.13;0.70;;;9.90;99.90;;;;;;5055230;28;20029;-44
2023/01/06 11:33:58;;;;;;;0.50;0.50;;;9.90;99.90;;;;;;5055574;28;20049;-43
2023/01/06 11:36:28;;;;;;;0.75;0.60;;;9.90;99.90;;;;;;5053814;28;20021;-41
2023/01/06 11:39:00;;;;;;;1.05;0.60;;;9.90;99.90;;;;;;5055612;28;20083;-43
2023/01/06 11:41:32;;;;;;;0.90;0.60;;;9.90;99.90;;;;;;5055486;28;20434;-43
2023/01/06 11:44:08;;;;;;;1.27;0.50;;;9.90;99.90;;;;;;5053970;28;20070;-41
2023/01/06 11:46:36;;;;;;;1.40;0.70;;;10.00;99.90;;;;;;5054962;28;20108;-43
2023/01/06 11:49:16;;;;;;;0.80;0.50;;;9.90;99.90;;;;;;5053349;28;20025;-44
2023/01/06 11:51:43;;;;;;;0.95;0.68;;;9.90;99.90;;;;;;5054087;28;20024;-44
2023/01/06 11:54:35;;;;;;;1.48;0.68;;;10.00;99.90;;;;;;5053794;28;20517;-44
2023/01/06 11:57:32;;;;;;;0.90;0.60;;;9.90;99.90;;;;;;5053185;28;20372;-42
2023/01/06 12:00:04;;;;;;;1.02;0.50;;;9.90;99.90;;;;;;5053766;28;20029;-43
2023/01/06 12:02:41;;;;;;;1.00;0.73;;;10.00;99.90;;;;;;5054160;28;20451;-43
2023/01/06 12:05:28;;;;;;;1.30;0.60;;;10.00;99.90;;;;;;5053163;28;20040;-44
2023/01/06 12:07:57;;;;;;;1.33;0.57;;;10.00;99.90;;;;;;5053184;28;20052;-44
2023/01/06 12:10:29;;;;;;;1.13;0.60;;;10.00;99.90;;;;;;5053242;28;20023;-43
2023/01/06 12:12:54;;;;;;;0.85;0.60;;;10.00;99.90;;;;;;5053725;28;20021;-43
2023/01/06 12:15:21;;;;;;;1.08;0.50;;;10.00;99.90;;;;;;5053337;28;20025;-43
2023/01/06 12:18:05;;;;;;;0.63;0.52;;;10.00;99.90;;;;;;5053430;28;20025;-42
2023/01/06 12:20:40;;;;;;;0.93;0.70;;;10.00;99.90;;;;;;5053308;28;20439;-44
2023/01/06 12:23:11;;;;;;;0.60;0.45;;;10.00;99.90;;;;;;5053580;28;20037;-44
2023/01/06 12:25:49;;;;;;;0.82;0.60;;;10.00;99.90;;;;;;5054621;28;20434;-43
2023/01/06 12:28:26;;;;;;;0.60;0.55;;;10.00;99.90;;;;;;5052947;28;20069;-43
2023/01/06 12:31:17;;;;;;;0.38;0.38;;;10.00;99.90;;;;;;5054939;28;20025;-43
2023/01/06 12:33:51;;;;;;;1.02;0.60;;;10.00;99.90;;;;;;5052922;28;20560;-43
2023/01/06 12:36:26;;;;;;;0.68;0.60;;;10.00;99.90;;;;;;5052328;28;20386;-43
2023/01/06 12:39:03;;;;;;;0.40;0.40;;;10.00;99.90;;;;;;5054302;28;20021;-44
2023/01/06 12:41:36;;;;;;;0.43;0.40;;;10.00;99.90;;;;;;5053662;28;20029;-43
2023/01/06 12:44:17;;;;;;;1.37;0.50;;;10.00;99.90;;;;;;5054003;28;20021;-44
2023/01/06 12:47:04;;;;;;;0.50;0.47;;;10.00;99.90;;;;;;5052050;28;20637;-44
2023/01/06 12:49:42;;;;;;;1.20;0.60;;;10.00;99.90;;;;;;5052324;28;20107;-43
2023/01/06 12:52:39;;;;;;;0.43;0.40;;;10.00;99.90;;;;;;5053850;28;20044;-43
2023/01/06 12:55:05;;;;;;;0.68;0.40;;;10.00;99.90;;;;;;5052362;28;20041;-43
2023/01/06 12:57:42;;;;;;;1.50;0.40;;;10.00;99.90;;;;;;5052258;28;20025;-44
2023/01/06 13:00:23;;;;;;;0.75;0.60;;;10.00;99.90;;;;;;5052418;28;20032;-43
2023/01/06 13:03:19;;;;;;;1.30;0.60;;;10.00;99.90;;;;;;5053582;28;20033;-43
2023/01/06 13:06:04;;;;;;;0.50;0.40;;;10.00;99.90;;;;;;5053585;28;20082;-43
2023/01/06 13:08:29;;;;;;;;;;;10.00;99.90;;;;;;5053425;28;20060;-42
2023/01/06 13:11:03;;;;;;;0.60;0.50;;;10.00;99.90;;;;;;5052557;28;19939;-43
2023/01/06 13:13:46;;;;;;;0.70;0.50;;;10.00;99.90;;;;;;5052405;28;20035;-43
2023/01/06 13:16:23;;;;;;;0.40;0.40;;;10.00;99.90;;;;;;5051554;28;20028;-44
2023/01/06 13:19:23;;;;;;;0.90;0.60;;;10.00;99.90;;;;;;5052086;28;20501;-43
2023/01/06 13:21:54;;;;;;;1.08;0.57;;;10.00;99.90;;;;;;5052625;28;20032;-43